KLFI/LFI METAR and TAF weather

Enter ICAO airport designator
Station Type Date Time Source
KLFI METAR 2019/02/16 16:56 UTC NOAA

KLFI 161656Z AUTO 04009KT 10SM -UP OVC046 03/01 M RMK AO2 RAE55UPB55 SLPNO $


Station Type Date Time Source
KLFI Decoded METAR 2019/02/16 16:56 UTC NOAA

Langley Air Force Base, VA, United States (KLFI) 37-05N 076-21W 6M
Feb 16, 2019 - 11:56 AM EST / 2019.02.16 1656 UTC
Wind: from the NE (040 degrees) at 10 MPH (9 KT):0
Visibility: 10 mile(s):0
Sky conditions: overcast
Weather: light precipitation
Temperature: 37 F (3 C)
Dew Point: 33 F (1 C)
Relative Humidity: 86%
ob: KLFI 161656Z AUTO 04009KT 10SM -UP OVC046 03/01 M RMK AO2 RAE55UPB55 SLPNO
cycle: 17

Station Type Date Time Source
KLFI TAF 2019/02/16 02:09 UTC NOAA

TAF KLFI 160200Z 1602/1708 23009KT 9999 BKN050 QNH2973INS
BECMG 1604/1605 23006KT 9999 BKN030 QNH2971INS
BECMG 1607/1608 VRB06KT 8000 -RA BR SCT010 BKN020 QNH2972INS
BECMG 1611/1612 02015KT 9999 NSW SCT020 QNH2980INS
BECMG 1616/1617 01015G20KT 8000 -RA BR OVC010 QNH2985INS
BECMG 1703/1704 02009KT 9000 BR OVC008 QNH2990INS TX18/1602Z TN02/1618Z LAST NO
AMDS AFT 1602 NEXT 1910


Example: see airport list